createdAt,value
2023-03-17T00:01:54.714Z,3.80
2023-03-17T00:04:25.019Z,3.80
2023-03-17T00:06:53.919Z,3.80
2023-03-17T00:09:23.019Z,3.80
2023-03-17T00:11:53.500Z,3.80
2023-03-17T00:14:21.787Z,3.80
2023-03-17T00:16:51.405Z,3.80
2023-03-17T00:19:22.190Z,3.80
2023-03-17T00:21:50.969Z,3.80
2023-03-17T00:24:19.054Z,3.70
2023-03-17T00:26:47.276Z,3.70
2023-03-17T00:29:17.516Z,3.70
2023-03-17T00:31:46.501Z,3.60
2023-03-17T00:34:19.505Z,3.60
2023-03-17T00:36:49.751Z,3.70
2023-03-17T00:39:19.028Z,3.70
2023-03-17T00:44:16.835Z,3.70
2023-03-17T00:46:46.641Z,3.70
2023-03-17T00:49:19.020Z,3.70
2023-03-17T00:51:48.436Z,3.60
2023-03-17T00:54:18.289Z,3.60
2023-03-17T00:56:48.108Z,3.60
2023-03-17T00:59:23.212Z,3.60
2023-03-17T01:01:51.896Z,3.60
2023-03-17T01:04:20.932Z,3.60
2023-03-17T01:06:50.884Z,3.60
2023-03-17T01:09:21.316Z,3.70
2023-03-17T01:11:50.035Z,3.70
2023-03-17T01:14:20.314Z,2.80
2023-03-17T01:16:49.023Z,3.70
2023-03-17T01:19:18.333Z,3.60
2023-03-17T01:21:48.190Z,3.60
2023-03-17T01:24:16.781Z,3.70
2023-03-17T01:26:46.060Z,3.70
2023-03-17T01:29:14.775Z,3.70
2023-03-17T01:31:46.297Z,3.70
2023-03-17T01:34:14.845Z,3.70
2023-03-17T01:36:43.404Z,3.70
2023-03-17T01:39:13.087Z,3.70
2023-03-17T01:41:42.331Z,3.70
2023-03-17T01:44:17.111Z,3.70
2023-03-17T01:46:47.709Z,3.60
2023-03-17T01:49:30.491Z,3.70
2023-03-17T01:52:06.157Z,3.60
2023-03-17T01:54:41.288Z,3.60
2023-03-17T01:57:14.864Z,3.60
2023-03-17T01:59:50.442Z,3.50
2023-03-17T02:02:25.228Z,3.50
2023-03-17T02:04:54.563Z,3.50
2023-03-17T02:07:24.851Z,3.50
2023-03-17T02:09:54.327Z,3.50
2023-03-17T02:12:24.897Z,3.50
2023-03-17T02:14:54.206Z,3.50
2023-03-17T02:17:26.611Z,3.50
2023-03-17T02:19:56.235Z,3.50
2023-03-17T02:22:26.612Z,3.50
2023-03-17T02:24:58.690Z,3.50
2023-03-17T02:30:16.563Z,3.50
2023-03-17T02:32:45.286Z,3.50
2023-03-17T02:35:14.150Z,3.50
2023-03-17T02:37:43.895Z,3.50
2023-03-17T02:40:14.571Z,3.50
2023-03-17T02:42:43.505Z,3.50
2023-03-17T02:45:15.370Z,3.50
2023-03-17T02:47:44.072Z,3.50
2023-03-17T02:50:19.523Z,3.50
2023-03-17T02:52:48.144Z,3.80
2023-03-17T02:55:17.075Z,3.50
2023-03-17T02:57:45.712Z,3.50
2023-03-17T03:00:16.330Z,3.50
2023-03-17T03:02:44.683Z,3.50
2023-03-17T03:05:13.146Z,3.50
2023-03-17T03:07:41.622Z,3.50
2023-03-17T03:10:11.246Z,3.50
2023-03-17T03:12:40.423Z,3.50
2023-03-17T03:15:09.823Z,3.50
2023-03-17T03:17:39.504Z,3.50
2023-03-17T03:20:11.091Z,3.50
2023-03-17T03:22:39.332Z,3.50
2023-03-17T03:25:08.875Z,3.50
2023-03-17T03:27:37.681Z,3.50
2023-03-17T03:30:08.299Z,3.50
2023-03-17T03:32:38.307Z,3.50
2023-03-17T03:35:08.579Z,3.40
2023-03-17T03:37:37.019Z,3.40
2023-03-17T03:40:07.606Z,3.50
2023-03-17T03:42:36.102Z,3.50
2023-03-17T03:45:04.614Z,3.40
2023-03-17T03:47:32.958Z,3.50
2023-03-17T03:50:02.773Z,3.50
2023-03-17T03:52:31.161Z,3.40
2023-03-17T03:54:59.669Z,3.50
2023-03-17T03:57:28.274Z,3.50
2023-03-17T03:59:56.579Z,3.50
2023-03-17T04:02:25.021Z,3.50
2023-03-17T04:04:54.306Z,3.50
2023-03-17T04:07:24.119Z,3.50
2023-03-17T04:09:52.454Z,3.40
2023-03-17T04:12:20.848Z,3.40
2023-03-17T04:14:49.180Z,3.40
2023-03-17T04:17:17.442Z,3.40
2023-03-17T04:19:46.026Z,3.10
2023-03-17T04:22:14.523Z,3.40
2023-03-17T04:24:44.431Z,3.40
2023-03-17T04:27:15.730Z,3.40
2023-03-17T04:29:44.819Z,3.40
2023-03-17T04:32:15.060Z,3.40
2023-03-17T04:34:44.267Z,3.40
2023-03-17T04:37:13.107Z,3.40
2023-03-17T04:39:42.208Z,3.40
2023-03-17T04:42:12.269Z,3.30
2023-03-17T04:44:41.460Z,3.30
2023-03-17T04:47:10.151Z,3.30
2023-03-17T04:49:38.660Z,3.30
2023-03-17T04:52:07.281Z,3.30
2023-03-17T04:54:36.532Z,3.20
2023-03-17T04:57:05.093Z,3.30
2023-03-17T04:59:34.853Z,3.30
2023-03-17T05:02:03.563Z,3.20
2023-03-17T05:04:32.789Z,3.20
2023-03-17T05:07:01.442Z,3.20
2023-03-17T05:09:29.557Z,3.40
2023-03-17T05:11:57.666Z,3.20
2023-03-17T05:14:26.265Z,3.30
2023-03-17T05:16:55.743Z,3.20
2023-03-17T05:19:23.860Z,3.30
2023-03-17T05:21:52.342Z,3.30
2023-03-17T05:24:20.476Z,3.60
2023-03-17T05:26:48.620Z,3.30
2023-03-17T05:29:16.743Z,3.30
2023-03-17T05:31:45.030Z,3.40
2023-03-17T05:34:15.386Z,3.40
2023-03-17T05:36:43.581Z,3.50
2023-03-17T05:39:14.338Z,3.40
2023-03-17T05:41:42.608Z,3.40
2023-03-17T05:44:10.665Z,3.40
2023-03-17T05:46:38.785Z,3.50
2023-03-17T05:49:07.677Z,3.50
2023-03-17T05:51:37.230Z,3.50
2023-03-17T05:54:05.859Z,3.30
2023-03-17T05:56:34.352Z,3.60
2023-03-17T05:59:02.795Z,3.60
2023-03-17T06:01:31.356Z,3.70
2023-03-17T06:04:01.005Z,3.70
2023-03-17T06:06:29.759Z,3.70
2023-03-17T06:08:59.222Z,3.70
2023-03-17T06:11:27.433Z,3.70
2023-03-17T06:13:55.521Z,3.80
2023-03-17T06:16:23.751Z,3.80
2023-03-17T06:18:52.130Z,3.80
2023-03-17T06:21:21.104Z,3.90
2023-03-17T06:23:49.197Z,4.40
2023-03-17T06:26:18.876Z,3.90
2023-03-17T06:28:47.078Z,3.90
2023-03-17T06:31:15.652Z,4.00
2023-03-17T06:33:43.857Z,4.00
2023-03-17T06:36:12.384Z,4.00
2023-03-17T06:38:40.654Z,4.10
2023-03-17T06:41:09.094Z,4.10
2023-03-17T06:43:38.695Z,4.20
2023-03-17T06:46:07.303Z,4.20
2023-03-17T06:48:35.628Z,4.20
2023-03-17T06:51:04.277Z,4.30
2023-03-17T06:53:32.572Z,4.40
2023-03-17T06:56:00.696Z,4.50
2023-03-17T06:58:28.957Z,4.50
2023-03-17T07:00:59.790Z,4.60
2023-03-17T07:03:28.662Z,4.60
2023-03-17T07:05:56.949Z,4.70
2023-03-17T07:08:25.232Z,4.80
2023-03-17T07:10:57.319Z,4.90
2023-03-17T07:13:25.890Z,5.00
2023-03-17T07:15:55.473Z,5.10
2023-03-17T07:18:25.517Z,5.00
2023-03-17T07:20:53.705Z,5.10
2023-03-17T07:23:23.467Z,5.30
2023-03-17T07:25:51.617Z,5.70
2023-03-17T07:28:21.563Z,6.00
2023-03-17T07:30:50.054Z,6.40
2023-03-17T07:33:21.215Z,6.80
2023-03-17T07:35:51.073Z,7.40
2023-03-17T07:38:20.512Z,8.00
2023-03-17T07:40:49.877Z,8.20
2023-03-17T07:43:18.438Z,7.90
2023-03-17T07:45:47.932Z,7.80
2023-03-17T07:48:16.285Z,7.90
2023-03-17T07:50:44.447Z,7.50
2023-03-17T07:53:14.560Z,7.40
2023-03-17T07:55:42.629Z,7.50
2023-03-17T07:58:11.818Z,7.60
2023-03-17T08:00:40.848Z,7.60
2023-03-17T08:03:10.894Z,7.40
2023-03-17T08:05:39.682Z,7.00
2023-03-17T08:08:08.044Z,7.10
2023-03-17T08:10:37.576Z,7.40
2023-03-17T08:13:05.676Z,7.50
2023-03-17T08:15:33.777Z,7.40
2023-03-17T08:18:02.504Z,7.80
2023-03-17T08:20:31.097Z,7.70
2023-03-17T08:22:59.395Z,7.90
2023-03-17T08:25:27.697Z,8.30
2023-03-17T08:27:57.271Z,8.30
2023-03-17T08:30:25.573Z,8.20
2023-03-17T08:32:54.849Z,8.50
2023-03-17T08:35:23.472Z,8.50
2023-03-17T08:37:52.111Z,8.40
2023-03-17T08:40:21.580Z,8.60
2023-03-17T08:42:50.716Z,8.60
2023-03-17T08:45:21.297Z,8.50
2023-03-17T08:47:49.558Z,8.70
2023-03-17T08:50:21.043Z,8.70
2023-03-17T08:52:49.875Z,8.50
2023-03-17T08:55:18.953Z,8.40
2023-03-17T08:57:47.552Z,8.30
2023-03-17T09:00:20.421Z,8.40
2023-03-17T09:02:50.395Z,8.60
2023-03-17T09:05:19.598Z,8.60
2023-03-17T09:07:49.100Z,8.80
2023-03-17T09:10:22.576Z,9.00
2023-03-17T09:12:50.809Z,9.10
2023-03-17T09:15:19.038Z,9.30
2023-03-17T09:17:47.211Z,9.20
2023-03-17T09:20:17.409Z,9.50
2023-03-17T09:22:45.693Z,9.50
2023-03-17T09:25:13.828Z,9.40
2023-03-17T09:27:41.954Z,9.50
2023-03-17T09:30:11.379Z,9.60
2023-03-17T09:32:39.751Z,9.50
2023-03-17T09:35:08.344Z,9.90
2023-03-17T09:37:37.943Z,10.40
2023-03-17T09:40:09.287Z,10.40
2023-03-17T09:42:51.554Z,10.70
2023-03-17T09:45:32.456Z,11.00
2023-03-17T09:48:12.939Z,11.00
2023-03-17T09:50:48.689Z,11.30
2023-03-17T09:53:21.951Z,11.30
2023-03-17T09:55:53.800Z,11.10
2023-03-17T09:58:27.159Z,11.30
2023-03-17T10:00:55.682Z,11.10
2023-03-17T10:03:25.719Z,11.20
2023-03-17T10:05:54.188Z,11.10
2023-03-17T10:08:31.782Z,10.80
2023-03-17T10:11:10.998Z,11.00
2023-03-17T10:13:52.809Z,11.20
2023-03-17T10:16:24.225Z,11.30
2023-03-17T10:18:56.852Z,11.20
2023-03-17T10:21:30.081Z,11.30
2023-03-17T10:24:00.448Z,11.20
2023-03-17T10:26:32.298Z,11.20
2023-03-17T10:29:03.988Z,11.40
2023-03-17T10:31:34.849Z,11.30
2023-03-17T10:34:14.752Z,11.50
2023-03-17T10:36:47.831Z,11.80
2023-03-17T10:39:20.754Z,11.90
2023-03-17T10:41:55.650Z,12.00
2023-03-17T10:44:35.696Z,12.10
2023-03-17T10:47:04.145Z,12.10
2023-03-17T10:49:37.797Z,12.10
2023-03-17T10:52:08.992Z,12.30
2023-03-17T10:54:38.626Z,12.40
2023-03-17T10:57:10.735Z,12.50
2023-03-17T10:59:44.839Z,12.50
2023-03-17T11:02:24.957Z,12.50
2023-03-17T11:04:59.836Z,12.60
2023-03-17T11:07:31.311Z,12.60
2023-03-17T11:10:03.549Z,12.80
2023-03-17T11:12:37.248Z,13.00
2023-03-17T11:15:08.634Z,13.20
2023-03-17T11:17:51.232Z,12.50
2023-03-17T11:20:34.730Z,13.20
2023-03-17T11:23:10.708Z,13.40
2023-03-17T11:25:44.972Z,13.20
2023-03-17T11:28:20.339Z,13.30
2023-03-17T11:31:01.924Z,13.00
2023-03-17T11:33:47.215Z,13.00
2023-03-17T11:36:27.352Z,12.90
2023-03-17T11:39:04.018Z,13.00
2023-03-17T11:41:48.854Z,13.00
2023-03-17T11:44:50.183Z,13.00
2023-03-17T11:47:32.140Z,13.20
2023-03-17T11:50:06.563Z,13.20
2023-03-17T11:52:44.819Z,13.00
2023-03-17T11:55:20.433Z,13.00
2023-03-17T11:57:55.869Z,12.90
2023-03-17T12:00:28.265Z,12.90
2023-03-17T12:03:02.012Z,13.00
2023-03-17T12:05:31.649Z,13.20
2023-03-17T12:08:04.290Z,13.20
2023-03-17T12:10:36.416Z,13.30
2023-03-17T12:13:12.157Z,13.30
2023-03-17T12:15:45.563Z,13.40
2023-03-17T12:18:17.553Z,13.40
2023-03-17T12:20:52.139Z,13.50
2023-03-17T12:23:30.496Z,13.50
2023-03-17T12:26:03.852Z,13.60
2023-03-17T12:28:37.827Z,13.70
2023-03-17T12:31:08.858Z,13.50
2023-03-17T12:33:43.901Z,13.60
2023-03-17T12:36:16.266Z,13.60
2023-03-17T12:38:47.548Z,13.60
2023-03-17T12:41:29.852Z,13.80
2023-03-17T12:44:06.841Z,14.00
2023-03-17T12:46:52.274Z,14.00
2023-03-17T12:49:42.170Z,14.30
2023-03-17T12:52:35.538Z,14.40
2023-03-17T12:55:08.981Z,14.40
2023-03-17T12:57:41.898Z,14.20
2023-03-17T13:00:25.184Z,13.90
2023-03-17T13:03:13.295Z,14.00
2023-03-17T13:05:48.102Z,14.00
2023-03-17T13:08:24.902Z,14.20
2023-03-17T13:11:13.792Z,14.10
2023-03-17T13:13:59.135Z,14.00
2023-03-17T13:16:32.201Z,14.10
2023-03-17T13:19:27.282Z,14.30
2023-03-17T13:22:34.045Z,14.10
2023-03-17T13:25:17.701Z,14.20
2023-03-17T13:27:50.022Z,14.20
2023-03-17T13:30:53.447Z,14.10
2023-03-17T13:33:24.756Z,14.30
2023-03-17T13:36:22.716Z,14.20
2023-03-17T13:39:18.738Z,14.20
2023-03-17T13:42:18.092Z,14.30
2023-03-17T13:45:14.786Z,14.30
2023-03-17T13:47:45.975Z,14.30
2023-03-17T13:50:17.069Z,14.40
2023-03-17T13:52:50.731Z,14.50
2023-03-17T13:55:38.057Z,14.50
2023-03-17T13:58:27.580Z,14.50
2023-03-17T14:01:03.795Z,14.40
2023-03-17T14:03:43.268Z,14.30
2023-03-17T14:06:13.932Z,14.40
2023-03-17T14:08:47.903Z,14.40
2023-03-17T14:11:24.395Z,14.60
2023-03-17T14:14:05.119Z,14.70
2023-03-17T14:16:36.320Z,14.80
2023-03-17T14:19:17.863Z,14.90
2023-03-17T14:21:46.596Z,14.80
2023-03-17T14:24:23.945Z,14.50
2023-03-17T14:26:53.606Z,14.60
2023-03-17T14:29:26.394Z,14.40
2023-03-17T14:32:04.749Z,14.40
2023-03-17T14:34:34.950Z,14.40
2023-03-17T14:37:05.970Z,14.40
2023-03-17T14:39:35.024Z,14.40
2023-03-17T14:42:04.879Z,14.30
2023-03-17T14:44:40.860Z,14.40
2023-03-17T14:47:17.871Z,14.30
2023-03-17T14:49:47.850Z,14.40
2023-03-17T14:52:25.090Z,14.30
2023-03-17T14:54:55.196Z,14.30
2023-03-17T14:57:29.105Z,14.30
2023-03-17T15:00:00.438Z,14.30
2023-03-17T15:02:35.538Z,14.40
2023-03-17T15:05:10.847Z,14.40
2023-03-17T15:07:41.852Z,14.20
2023-03-17T15:10:16.508Z,14.10
2023-03-17T15:12:46.286Z,15.10
2023-03-17T15:15:23.857Z,14.10
2023-03-17T15:17:55.331Z,14.10
2023-03-17T15:20:25.567Z,14.10
2023-03-17T15:22:59.696Z,14.10
2023-03-17T15:25:34.337Z,13.90
2023-03-17T15:28:02.580Z,13.90
2023-03-17T15:30:44.319Z,13.90
2023-03-17T15:33:21.845Z,13.90
2023-03-17T15:35:52.403Z,13.80
2023-03-17T15:38:21.600Z,13.80
2023-03-17T15:40:50.271Z,13.70
2023-03-17T15:43:21.616Z,13.70
2023-03-17T15:45:54.673Z,13.60
2023-03-17T15:48:25.364Z,13.60
2023-03-17T15:50:56.772Z,13.50
2023-03-17T15:53:25.415Z,13.50
2023-03-17T15:55:54.513Z,13.50
2023-03-17T15:58:22.608Z,13.40
2023-03-17T16:00:54.681Z,13.30
2023-03-17T16:03:29.201Z,13.30
2023-03-17T16:05:59.515Z,13.20
2023-03-17T16:08:27.791Z,13.10
2023-03-17T16:10:56.105Z,13.10
2023-03-17T16:13:24.322Z,13.10
2023-03-17T16:15:57.251Z,13.10
2023-03-17T16:18:32.331Z,13.00
2023-03-17T16:21:02.913Z,12.90
2023-03-17T16:23:35.385Z,12.90
2023-03-17T16:26:14.753Z,12.80
2023-03-17T16:28:45.970Z,12.80
2023-03-17T16:31:23.541Z,12.80
2023-03-17T16:33:52.948Z,12.70
2023-03-17T16:36:23.753Z,12.70
2023-03-17T16:38:52.477Z,12.60
2023-03-17T16:41:23.048Z,12.50
2023-03-17T16:43:55.113Z,12.50
2023-03-17T16:46:23.783Z,12.40
2023-03-17T16:48:52.590Z,12.30
2023-03-17T16:51:22.415Z,12.30
2023-03-17T16:53:50.478Z,12.30
2023-03-17T16:56:20.522Z,13.40
2023-03-17T16:58:49.417Z,12.10
2023-03-17T17:01:20.569Z,12.00
2023-03-17T17:03:49.356Z,12.00
2023-03-17T17:06:18.162Z,11.90
2023-03-17T17:08:50.290Z,11.90
2023-03-17T17:11:20.087Z,11.90
2023-03-17T17:13:50.099Z,11.80
2023-03-17T17:16:24.428Z,11.90
2023-03-17T17:18:53.374Z,11.90
2023-03-17T17:21:22.335Z,11.80
2023-03-17T17:23:53.175Z,11.80
2023-03-17T17:26:21.555Z,11.60
2023-03-17T17:28:50.123Z,11.60
2023-03-17T17:31:18.403Z,11.60
2023-03-17T17:33:46.756Z,11.50
2023-03-17T17:36:17.318Z,11.40
2023-03-17T17:38:46.160Z,11.30
2023-03-17T17:41:16.994Z,11.30
2023-03-17T17:43:46.346Z,11.30
2023-03-17T17:46:17.321Z,11.20
2023-03-17T17:48:45.512Z,11.30
2023-03-17T17:51:14.093Z,11.30
2023-03-17T17:53:42.370Z,11.30
2023-03-17T17:56:16.024Z,11.30
2023-03-17T17:58:44.566Z,11.20
2023-03-17T18:01:14.163Z,11.10
2023-03-17T18:03:43.138Z,11.10
2023-03-17T18:06:12.852Z,11.00
2023-03-17T18:08:41.653Z,11.00
2023-03-17T18:11:10.097Z,11.00
2023-03-17T18:13:41.052Z,11.00
2023-03-17T18:16:10.796Z,11.00
2023-03-17T18:18:42.352Z,11.00
2023-03-17T18:21:11.688Z,10.90
2023-03-17T18:23:46.780Z,10.90
2023-03-17T18:26:16.141Z,10.90
2023-03-17T18:28:46.012Z,10.90
2023-03-17T18:31:18.931Z,10.90
2023-03-17T18:33:48.664Z,10.90
2023-03-17T18:36:17.096Z,10.90
2023-03-17T18:38:45.535Z,10.80
2023-03-17T18:41:13.927Z,10.80
2023-03-17T18:43:44.715Z,10.80
2023-03-17T18:46:14.444Z,10.80
2023-03-17T18:48:42.724Z,10.70
2023-03-17T18:51:11.219Z,10.70
2023-03-17T18:53:39.535Z,10.70
2023-03-17T18:56:08.447Z,10.70
2023-03-17T18:58:37.353Z,10.70
2023-03-17T19:01:06.322Z,10.70
2023-03-17T19:03:36.626Z,10.70
2023-03-17T19:06:13.262Z,10.60
2023-03-17T19:08:41.679Z,10.60
2023-03-17T19:11:12.123Z,10.60
2023-03-17T19:13:40.731Z,10.60
2023-03-17T19:16:10.492Z,10.60
2023-03-17T19:18:42.209Z,10.50
2023-03-17T19:21:11.528Z,10.60
2023-03-17T19:23:39.909Z,10.50
2023-03-17T19:26:08.169Z,10.50
2023-03-17T19:28:36.366Z,10.50
2023-03-17T19:31:04.565Z,10.50
2023-03-17T19:33:33.527Z,10.50
2023-03-17T19:36:08.022Z,10.50
2023-03-17T19:38:36.549Z,10.50
2023-03-17T19:41:05.457Z,10.50
2023-03-17T19:43:40.788Z,10.60
2023-03-17T19:46:10.993Z,10.60
2023-03-17T19:48:39.621Z,10.50
2023-03-17T19:51:09.390Z,10.50
2023-03-17T19:53:38.368Z,10.40
2023-03-17T19:56:07.090Z,10.30
2023-03-17T19:58:35.815Z,10.40
2023-03-17T20:01:04.735Z,10.40
2023-03-17T20:03:33.644Z,10.30
2023-03-17T20:06:05.980Z,10.30
2023-03-17T20:08:35.816Z,10.20
2023-03-17T20:11:05.633Z,10.30
2023-03-17T20:13:34.633Z,10.20
2023-03-17T20:16:03.601Z,10.30
2023-03-17T20:18:32.245Z,10.30
2023-03-17T20:21:01.622Z,10.30
2023-03-17T20:23:29.879Z,10.20
2023-03-17T20:25:59.434Z,10.20
2023-03-17T20:28:29.964Z,10.30
2023-03-17T20:31:00.735Z,10.20
2023-03-17T20:33:29.087Z,10.10
2023-03-17T20:35:57.737Z,10.10
2023-03-17T20:38:25.995Z,10.10
2023-03-17T20:40:54.087Z,10.00
2023-03-17T20:43:23.824Z,10.00
2023-03-17T20:45:53.232Z,10.00
2023-03-17T20:48:21.617Z,10.10
2023-03-17T20:50:50.964Z,10.00
2023-03-17T20:53:19.355Z,10.00
2023-03-17T20:55:48.298Z,9.90
2023-03-17T20:58:16.504Z,10.00
2023-03-17T21:00:46.281Z,10.00
2023-03-17T21:03:14.861Z,9.90
2023-03-17T21:05:43.586Z,9.90
2023-03-17T21:08:12.291Z,9.50
2023-03-17T21:10:40.916Z,9.80
2023-03-17T21:13:09.776Z,9.70
2023-03-17T21:15:38.645Z,9.70
2023-03-17T21:18:08.515Z,9.60
2023-03-17T21:20:37.677Z,9.60
2023-03-17T21:23:08.960Z,9.60
2023-03-17T21:25:37.333Z,9.60
2023-03-17T21:28:06.676Z,9.50
2023-03-17T21:30:37.947Z,9.40
2023-03-17T21:33:07.961Z,9.40
2023-03-17T21:35:37.095Z,9.40
2023-03-17T21:38:05.980Z,9.40
2023-03-17T21:40:34.434Z,9.30
2023-03-17T21:43:02.950Z,9.30
2023-03-17T21:45:31.629Z,9.20
2023-03-17T21:47:59.984Z,9.10
2023-03-17T21:50:30.820Z,9.10
2023-03-17T21:52:59.503Z,9.20
2023-03-17T21:55:27.795Z,9.00
2023-03-17T21:57:56.293Z,9.00
2023-03-17T22:00:27.214Z,8.90
2023-03-17T22:02:59.187Z,9.00
2023-03-17T22:05:31.262Z,8.90
2023-03-17T22:07:59.822Z,8.90
2023-03-17T22:10:28.085Z,8.80
2023-03-17T22:12:56.577Z,8.90
2023-03-17T22:15:25.708Z,8.90
2023-03-17T22:17:54.440Z,8.90
2023-03-17T22:20:22.719Z,8.80
2023-03-17T22:22:52.353Z,8.80
2023-03-17T22:25:23.186Z,8.70
2023-03-17T22:27:51.638Z,8.60
2023-03-17T22:30:20.183Z,8.60
2023-03-17T22:32:48.969Z,8.70
2023-03-17T22:35:19.501Z,8.60
2023-03-17T22:37:47.919Z,8.60
2023-03-17T22:40:18.318Z,8.60
2023-03-17T22:42:46.797Z,8.50
2023-03-17T22:45:15.509Z,8.50
2023-03-17T22:47:43.916Z,8.40
2023-03-17T22:50:12.989Z,8.40
2023-03-17T22:52:41.292Z,8.40
2023-03-17T22:55:10.587Z,8.30
2023-03-17T22:57:40.389Z,8.30
2023-03-17T23:00:14.375Z,8.30
2023-03-17T23:02:42.952Z,8.20
2023-03-17T23:05:13.653Z,8.10
2023-03-17T23:07:51.829Z,8.10
2023-03-17T23:10:24.913Z,8.10
2023-03-17T23:12:54.828Z,8.10
2023-03-17T23:15:23.627Z,8.10
2023-03-17T23:17:52.112Z,8.10
2023-03-17T23:20:20.648Z,8.10
2023-03-17T23:22:49.233Z,8.20
2023-03-17T23:25:18.467Z,8.20
2023-03-17T23:27:47.012Z,8.20
2023-03-17T23:30:18.073Z,8.20
2023-03-17T23:32:46.906Z,8.20
2023-03-17T23:35:15.497Z,8.20
2023-03-17T23:37:43.979Z,8.30
2023-03-17T23:40:15.756Z,8.30
2023-03-17T23:42:44.621Z,8.30
2023-03-17T23:45:15.689Z,8.30
2023-03-17T23:47:46.767Z,8.30
2023-03-17T23:50:16.096Z,8.30
2023-03-17T23:52:44.896Z,8.30
2023-03-17T23:55:14.581Z,8.30
2023-03-17T23:57:44.528Z,8.30
